Time;durP1;ratioP1;P1;durP2;ratioP2;P2;SDS_P1;SDS_P2;PMS_P1;PMS_P2;Temp;Humidity;BMP_temperature;BMP_pressure;BME280_temperature;BME280_humidity;BME280_pressure;Samples;Min_cycle;Max_cycle;Signal;HPM_P1;HPM_P2
2021/08/08 00:00:40;;;;;;;5.70;5.20;;;16.40;99.90;;;;;;5031600;28;20572;-59
2021/08/08 00:03:06;;;;;;;7.03;5.43;;;16.40;99.90;;;;;;5030689;28;20184;-59
2021/08/08 00:05:32;;;;;;;5.80;5.30;;;16.40;99.90;;;;;;5028024;28;20187;-55
2021/08/08 00:07:57;;;;;;;5.10;4.70;;;16.40;99.90;;;;;;5025996;28;20186;-57
2021/08/08 00:10:23;;;;;;;5.70;5.13;;;16.40;99.90;;;;;;5029274;28;20175;-58
2021/08/08 00:12:49;;;;;;;5.83;4.80;;;16.40;99.90;;;;;;5032010;28;20595;-59
2021/08/08 00:15:14;;;;;;;6.17;5.67;;;16.40;99.90;;;;;;5031814;28;20182;-59
2021/08/08 00:17:41;;;;;;;5.80;5.30;;;16.40;99.90;;;;;;5031584;28;20188;-59
2021/08/08 00:20:07;;;;;;;5.80;5.30;;;16.40;99.90;;;;;;5030974;28;20238;-59
2021/08/08 00:22:33;;;;;;;5.07;4.67;;;16.30;99.90;;;;;;5030292;28;20437;-59
2021/08/08 00:25:03;;;;;;;6.00;5.50;;;16.30;99.90;;;;;;5030307;28;20452;-59
2021/08/08 00:27:28;;;;;;;5.00;4.60;;;16.30;99.90;;;;;;5028918;28;20179;-59
2021/08/08 00:29:54;;;;;;;4.93;4.53;;;16.30;99.90;;;;;;5026927;28;20915;-56
2021/08/08 00:32:19;;;;;;;4.77;4.27;;;16.30;99.90;;;;;;5030637;28;20278;-59
2021/08/08 00:34:45;;;;;;;10.10;4.87;;;16.30;99.90;;;;;;5029507;28;20193;-59
2021/08/08 00:37:10;;;;;;;5.30;4.90;;;16.30;99.90;;;;;;5030335;28;20190;-59
2021/08/08 00:39:36;;;;;;;4.37;4.07;;;16.30;99.90;;;;;;5029446;28;20210;-58
2021/08/08 00:42:02;;;;;;;5.17;4.67;;;16.20;99.90;;;;;;5030376;28;20183;-58
2021/08/08 00:44:28;;;;;;;4.60;4.20;;;16.20;99.90;;;;;;5029060;28;20187;-59
2021/08/08 00:46:54;;;;;;;4.70;4.30;;;16.20;99.90;;;;;;5029647;28;20414;-57
2021/08/08 00:49:19;;;;;;;5.03;4.63;;;16.10;99.90;;;;;;5028721;28;20201;-59
2021/08/08 00:51:45;;;;;;;4.90;4.50;;;16.10;99.90;;;;;;5030686;28;20270;-59
2021/08/08 00:54:11;;;;;;;4.97;4.47;;;16.10;99.90;;;;;;5030129;28;20894;-56
2021/08/08 00:56:38;;;;;;;4.57;4.10;;;16.10;99.90;;;;;;5029241;28;20516;-59
2021/08/08 00:59:04;;;;;;;4.10;3.70;;;16.00;99.90;;;;;;5030025;28;20671;-59
2021/08/08 01:01:34;;;;;;;5.20;4.20;;;16.10;99.90;;;;;;5028481;28;20576;-58
2021/08/08 01:04:01;;;;;;;5.00;4.50;;;16.00;99.90;;;;;;5029921;28;20421;-58
2021/08/08 01:06:51;;;;;;;5.20;4.63;;;16.00;99.90;;;;;;5029003;28;20426;-59
2021/08/08 01:09:18;;;;;;;3.97;3.63;;;16.00;99.90;;;;;;5029476;28;20421;-59
2021/08/08 01:11:44;;;;;;;4.20;3.80;;;16.00;99.90;;;;;;5030045;28;20425;-59
2021/08/08 01:14:11;;;;;;;4.67;4.33;;;16.00;99.90;;;;;;5028857;28;20434;-59
2021/08/08 01:16:38;;;;;;;4.30;3.90;;;15.90;99.90;;;;;;5029958;28;20193;-57
2021/08/08 01:19:05;;;;;;;4.60;4.20;;;15.80;99.90;;;;;;5029047;28;21017;-58
2021/08/08 01:21:32;;;;;;;4.20;3.80;;;15.90;99.90;;;;;;5029832;28;21008;-59
2021/08/08 01:23:59;;;;;;;4.40;4.00;;;15.90;99.90;;;;;;5028787;28;20959;-57
2021/08/08 01:26:26;;;;;;;4.50;4.10;;;15.80;99.90;;;;;;5029596;28;20410;-58
2021/08/08 01:28:55;;;;;;;4.70;4.20;;;15.80;99.90;;;;;;5028576;28;20417;-59
2021/08/08 01:31:22;;;;;;;4.57;3.97;;;15.80;99.90;;;;;;5029124;28;20437;-59
2021/08/08 01:33:47;;;;;;;4.43;4.03;;;15.80;99.90;;;;;;5028248;28;20417;-59
2021/08/08 01:36:15;;;;;;;4.77;3.77;;;15.70;99.90;;;;;;5029187;28;20454;-60
2021/08/08 01:38:54;;;;;;;4.23;3.80;;;15.70;99.90;;;;;;5027855;28;20449;-57
2021/08/08 01:41:21;;;;;;;4.37;3.97;;;15.70;99.90;;;;;;5029118;28;20820;-57
2021/08/08 01:43:50;;;;;;;5.13;4.17;;;15.60;99.90;;;;;;5029615;28;21264;-58
2021/08/08 01:46:17;;;;;;;4.70;4.30;;;15.70;99.90;;;;;;5029703;28;20407;-58
2021/08/08 01:48:45;;;;;;;5.13;4.00;;;15.60;99.90;;;;;;5028514;28;20468;-59
2021/08/08 01:51:12;;;;;;;3.60;3.30;;;15.60;99.90;;;;;;5029370;28;20413;-58
2021/08/08 01:53:39;;;;;;;4.13;3.83;;;15.60;99.90;;;;;;5045420;28;20429;-59
2021/08/08 01:56:05;;;;;;;4.80;3.90;;;15.60;99.90;;;;;;5049328;28;20454;-60
2021/08/08 01:58:30;;;;;;;4.17;3.77;;;15.60;99.90;;;;;;5032914;28;20422;-59
2021/08/08 02:00:57;;;;;;;4.03;3.63;;;15.60;99.90;;;;;;5029268;28;20230;-59
2021/08/08 02:03:33;;;;;;;4.60;4.20;;;15.50;99.90;;;;;;5028615;28;20646;-58
2021/08/08 02:05:58;;;;;;;4.20;3.90;;;15.40;99.90;;;;;;5029692;28;20468;-59
2021/08/08 02:08:24;;;;;;;3.97;3.57;;;15.40;99.90;;;;;;5028716;28;20422;-59
2021/08/08 02:10:49;;;;;;;4.17;3.80;;;15.40;99.90;;;;;;5027606;28;20537;-58
2021/08/08 02:13:15;;;;;;;6.40;4.20;;;15.40;99.90;;;;;;5028619;28;20178;-59
2021/08/08 02:15:40;;;;;;;4.07;3.67;;;15.30;99.90;;;;;;5029323;28;20190;-59
2021/08/08 02:18:06;;;;;;;4.50;4.17;;;15.30;99.90;;;;;;5028244;28;20183;-59
2021/08/08 02:20:31;;;;;;;4.03;3.63;;;15.30;99.90;;;;;;5028973;28;20251;-59
2021/08/08 02:22:57;;;;;;;4.50;4.10;;;15.20;99.90;;;;;;5029340;28;20217;-58
2021/08/08 02:25:23;;;;;;;3.97;3.63;;;15.30;99.90;;;;;;5028762;28;20186;-59
2021/08/08 02:27:48;;;;;;;4.00;3.70;;;15.20;99.90;;;;;;5029246;28;20160;-54
2021/08/08 02:30:14;;;;;;;3.57;3.27;;;15.30;99.90;;;;;;5028977;28;20262;-59
2021/08/08 02:32:39;;;;;;;5.57;3.90;;;15.40;99.90;;;;;;5026763;28;20183;-58
2021/08/08 02:35:05;;;;;;;4.17;3.77;;;15.40;99.90;;;;;;5031547;28;20178;-57
2021/08/08 02:37:31;;;;;;;6.53;4.40;;;15.40;99.90;;;;;;5031117;28;20555;-58
2021/08/08 02:39:57;;;;;;;4.83;3.30;;;15.30;99.90;;;;;;5032719;28;20453;-58
2021/08/08 02:42:22;;;;;;;4.10;3.70;;;15.20;99.90;;;;;;5032589;28;20198;-59
2021/08/08 02:44:48;;;;;;;3.90;3.60;;;15.10;99.90;;;;;;5030949;28;20175;-58
2021/08/08 02:47:13;;;;;;;4.50;4.10;;;15.10;99.90;;;;;;5032426;28;20179;-59
2021/08/08 02:49:39;;;;;;;3.77;3.47;;;15.10;99.90;;;;;;5030134;28;20225;-59
2021/08/08 02:52:05;;;;;;;4.00;3.70;;;15.10;99.90;;;;;;5031748;28;20214;-58
2021/08/08 02:54:31;;;;;;;4.00;3.67;;;15.10;99.90;;;;;;5031794;28;20213;-59
2021/08/08 02:56:56;;;;;;;4.10;3.80;;;15.10;99.90;;;;;;5031528;28;20739;-58
2021/08/08 02:59:22;;;;;;;4.40;4.00;;;15.20;99.90;;;;;;5032084;28;20421;-58
2021/08/08 03:01:47;;;;;;;9.40;3.87;;;15.10;99.90;;;;;;5031401;28;20235;-58
2021/08/08 03:04:13;;;;;;;5.37;4.00;;;15.10;99.90;;;;;;5032184;28;20671;-58
2021/08/08 03:06:45;;;;;;;4.87;4.37;;;15.10;99.90;;;;;;5031962;28;20301;-59
2021/08/08 03:09:10;;;;;;;7.50;4.17;;;15.10;99.90;;;;;;5029700;28;20175;-59
2021/08/08 03:11:36;;;;;;;3.93;3.63;;;15.10;99.90;;;;;;5031513;28;20484;-58
2021/08/08 03:14:01;;;;;;;4.20;3.90;;;15.10;99.90;;;;;;5031243;28;20888;-58
2021/08/08 03:16:27;;;;;;;3.90;3.37;;;15.10;99.90;;;;;;5031603;28;20219;-59
2021/08/08 03:18:52;;;;;;;4.20;3.90;;;15.10;99.90;;;;;;5031307;28;20221;-58
2021/08/08 03:21:18;;;;;;;3.70;3.40;;;15.10;99.90;;;;;;5039790;28;20653;-58
2021/08/08 03:23:44;;;;;;;3.97;3.57;;;15.10;99.90;;;;;;5031734;28;20176;-58
2021/08/08 03:26:09;;;;;;;3.80;3.40;;;15.10;99.90;;;;;;5029938;28;20186;-59
2021/08/08 03:28:35;;;;;;;3.90;3.60;;;15.10;99.90;;;;;;5031584;28;20175;-55
2021/08/08 03:31:00;;;;;;;4.20;3.80;;;15.00;99.90;;;;;;5029840;28;20182;-58
2021/08/08 03:33:26;;;;;;;4.27;3.97;;;15.00;99.90;;;;;;5031638;28;20719;-57
2021/08/08 03:35:51;;;;;;;4.63;4.23;;;15.00;99.90;;;;;;5031196;28;20258;-58
2021/08/08 03:38:17;;;;;;;4.03;3.70;;;15.00;99.90;;;;;;5031476;28;20194;-59
2021/08/08 03:40:42;;;;;;;4.30;3.90;;;15.00;99.90;;;;;;5030673;28;20213;-59
2021/08/08 03:43:08;;;;;;;4.43;4.03;;;15.00;99.90;;;;;;5031206;28;20262;-59
2021/08/08 03:45:34;;;;;;;4.63;3.90;;;14.90;99.90;;;;;;5031382;28;20504;-59
2021/08/08 03:47:59;;;;;;;4.63;4.10;;;14.90;99.90;;;;;;5030429;28;20705;-58
2021/08/08 03:50:25;;;;;;;4.57;4.17;;;14.90;99.90;;;;;;5031073;28;20386;-59
2021/08/08 03:52:50;;;;;;;4.70;4.30;;;14.90;99.90;;;;;;5031222;28;20175;-56
2021/08/08 03:55:17;;;;;;;6.13;4.80;;;14.90;99.90;;;;;;5031229;28;20253;-57
2021/08/08 03:57:42;;;;;;;4.90;4.50;;;14.90;99.90;;;;;;5030993;28;20191;-59
2021/08/08 04:00:08;;;;;;;4.70;4.30;;;14.90;99.90;;;;;;5031006;28;20507;-59
2021/08/08 04:02:34;;;;;;;4.90;4.50;;;15.00;99.90;;;;;;5030966;28;20209;-58
2021/08/08 04:04:59;;;;;;;4.10;3.70;;;15.10;99.90;;;;;;5031214;28;20418;-59
2021/08/08 04:07:25;;;;;;;5.00;4.60;;;15.10;99.90;;;;;;5031197;28;20187;-59
2021/08/08 04:09:50;;;;;;;4.70;4.30;;;15.10;99.90;;;;;;5030620;28;20204;-59
2021/08/08 04:12:16;;;;;;;5.40;4.50;;;15.10;99.90;;;;;;5030861;28;20179;-58
2021/08/08 04:14:43;;;;;;;4.80;4.40;;;15.20;99.90;;;;;;5030925;28;20219;-59
2021/08/08 04:17:09;;;;;;;5.60;4.57;;;15.20;99.90;;;;;;5030756;28;20418;-58
2021/08/08 04:19:35;;;;;;;5.43;4.77;;;15.10;99.90;;;;;;5030427;28;20822;-57
2021/08/08 04:22:04;;;;;;;5.37;4.60;;;15.20;99.90;;;;;;5011045;28;20430;-58
2021/08/08 04:24:29;;;;;;;4.73;4.30;;;15.20;99.90;;;;;;5011196;28;20175;-58
2021/08/08 04:26:55;;;;;;;4.50;4.10;;;15.20;99.90;;;;;;5011036;28;20755;-59
2021/08/08 04:29:21;;;;;;;4.73;4.17;;;15.20;99.90;;;;;;5023543;28;20183;-59
2021/08/08 04:31:47;;;;;;;4.57;4.17;;;15.20;99.90;;;;;;5030787;28;20848;-58
2021/08/08 04:34:13;;;;;;;6.20;4.43;;;15.30;99.90;;;;;;5030569;28;20418;-58
2021/08/08 04:36:38;;;;;;;4.67;4.27;;;15.20;99.90;;;;;;5032789;28;20513;-59
2021/08/08 04:39:04;;;;;;;7.13;4.20;;;15.30;99.90;;;;;;5039728;28;20175;-59
2021/08/08 04:41:29;;;;;;;4.67;3.83;;;15.40;99.90;;;;;;5029845;28;20218;-58
2021/08/08 04:43:55;;;;;;;4.13;3.83;;;15.30;99.90;;;;;;5030289;28;20183;-57
2021/08/08 04:46:20;;;;;;;4.63;4.13;;;15.40;99.90;;;;;;5030118;28;20685;-59
2021/08/08 04:48:46;;;;;;;4.07;3.77;;;15.40;99.90;;;;;;5030194;28;20601;-58
2021/08/08 04:51:11;;;;;;;4.10;3.70;;;15.40;99.90;;;;;;5030164;28;20556;-58
2021/08/08 04:53:37;;;;;;;4.47;3.90;;;15.50;99.90;;;;;;5030165;28;20244;-59
2021/08/08 04:56:02;;;;;;;5.53;3.20;;;15.50;99.90;;;;;;5030183;28;20190;-59
2021/08/08 04:58:28;;;;;;;4.17;3.80;;;15.50;99.90;;;;;;5029647;28;20548;-57
2021/08/08 05:00:54;;;;;;;4.17;3.77;;;15.50;99.90;;;;;;5029154;28;20235;-57
2021/08/08 05:03:19;;;;;;;4.37;4.07;;;15.50;99.90;;;;;;5029641;28;20708;-60
2021/08/08 05:05:45;;;;;;;7.80;3.80;;;15.50;99.90;;;;;;5029818;28;20276;-57
2021/08/08 05:08:10;;;;;;;4.10;3.70;;;15.50;99.90;;;;;;5029678;28;20197;-58
2021/08/08 05:10:36;;;;;;;4.30;3.90;;;15.50;99.90;;;;;;5029736;28;20257;-57
2021/08/08 05:13:01;;;;;;;5.70;3.73;;;15.50;99.90;;;;;;5030056;28;20512;-58
2021/08/08 05:15:27;;;;;;;4.90;4.50;;;15.40;99.90;;;;;;5029909;28;20173;-58
2021/08/08 05:17:53;;;;;;;5.47;4.47;;;15.30;99.90;;;;;;5029619;28;20274;-58
2021/08/08 05:20:18;;;;;;;7.23;4.37;;;15.40;99.90;;;;;;5029545;28;20194;-58
2021/08/08 05:22:44;;;;;;;6.97;3.87;;;15.30;99.90;;;;;;5030015;28;20166;-52
2021/08/08 05:25:11;;;;;;;5.63;3.93;;;15.40;99.90;;;;;;5029787;28;20175;-57
2021/08/08 05:27:36;;;;;;;5.60;4.40;;;15.40;99.90;;;;;;5029776;28;20172;-58
2021/08/08 05:30:07;;;;;;;4.07;3.77;;;15.40;99.90;;;;;;5029368;28;20515;-52
2021/08/08 05:32:33;;;;;;;3.73;3.43;;;15.50;99.90;;;;;;5029459;28;20183;-57
2021/08/08 05:34:58;;;;;;;3.87;3.40;;;15.50;99.90;;;;;;5029712;28;20547;-58
2021/08/08 05:37:24;;;;;;;3.90;3.60;;;15.60;99.90;;;;;;5032029;28;20190;-57
2021/08/08 05:39:49;;;;;;;3.37;3.07;;;15.70;99.90;;;;;;5038339;28;20203;-58
2021/08/08 05:42:19;;;;;;;3.40;3.03;;;15.80;99.90;;;;;;5027764;28;20209;-59
2021/08/08 05:44:45;;;;;;;4.23;3.83;;;15.80;99.90;;;;;;5029405;28;20179;-57
2021/08/08 05:47:11;;;;;;;6.70;4.97;;;15.90;99.90;;;;;;5029305;28;20421;-59
2021/08/08 05:49:36;;;;;;;3.37;3.03;;;15.90;99.90;;;;;;5029175;28;20535;-58
2021/08/08 05:52:04;;;;;;;3.63;3.33;;;15.90;99.90;;;;;;5028999;28;20182;-58
2021/08/08 05:54:30;;;;;;;3.00;2.80;;;16.00;99.90;;;;;;5029214;28;20187;-59
2021/08/08 05:56:56;;;;;;;3.93;3.33;;;16.10;99.90;;;;;;5029180;28;20418;-57
2021/08/08 05:59:22;;;;;;;3.57;3.27;;;16.10;99.90;;;;;;5029025;28;20433;-58
2021/08/08 06:01:47;;;;;;;4.00;3.70;;;16.20;99.90;;;;;;5028683;28;20720;-57
2021/08/08 06:04:13;;;;;;;4.37;3.67;;;16.30;99.90;;;;;;5029054;28;20708;-58
2021/08/08 06:06:39;;;;;;;3.70;3.40;;;16.40;99.90;;;;;;5029195;28;20194;-58
2021/08/08 06:09:04;;;;;;;5.83;3.70;;;16.50;99.90;;;;;;5028834;28;20182;-59
2021/08/08 06:11:30;;;;;;;3.40;3.10;;;16.60;99.90;;;;;;5029538;28;20645;-60
2021/08/08 06:13:55;;;;;;;3.70;3.40;;;16.60;99.90;;;;;;5033145;28;20221;-59
2021/08/08 06:16:21;;;;;;;3.93;3.10;;;16.70;99.90;;;;;;5032717;28;20182;-59
2021/08/08 06:18:47;;;;;;;3.33;3.03;;;16.70;99.90;;;;;;5031866;28;20188;-59
2021/08/08 06:21:12;;;;;;;3.53;3.23;;;16.80;99.90;;;;;;5031225;28;20882;-58
2021/08/08 06:23:38;;;;;;;2.87;2.67;;;16.90;99.90;;;;;;5032748;28;20187;-57
2021/08/08 06:26:04;;;;;;;3.17;2.80;;;16.90;99.90;;;;;;5032877;28;20175;-58
2021/08/08 06:28:29;;;;;;;2.93;2.73;;;17.00;99.90;;;;;;5032932;28;20848;-53
2021/08/08 06:30:55;;;;;;;3.00;2.70;;;17.10;99.90;;;;;;5032314;28;20203;-59
2021/08/08 06:33:21;;;;;;;3.43;2.60;;;17.10;92.40;;;;;;5032691;28;20736;-59
2021/08/08 06:35:48;;;;;;;3.00;2.70;;;17.20;97.60;;;;;;5032706;28;20533;-58
2021/08/08 06:38:14;;;;;;;2.87;2.67;;;17.30;97.30;;;;;;5032515;28;20430;-59
2021/08/08 06:40:39;;;;;;;3.83;3.07;;;17.40;92.80;;;;;;5032263;28;20528;-59
2021/08/08 06:43:05;;;;;;;4.13;2.53;;;17.50;88.70;;;;;;5032421;28;20179;-58
2021/08/08 06:45:33;;;;;;;2.87;2.57;;;17.50;83.60;;;;;;5032317;28;20202;-58
2021/08/08 06:48:00;;;;;;;2.87;2.60;;;17.60;63.40;;;;;;5032301;28;20184;-58
2021/08/08 06:50:27;;;;;;;2.60;2.40;;;17.90;51.80;;;;;;5031920;28;20439;-58
2021/08/08 06:52:52;;;;;;;4.37;2.23;;;18.10;27.30;;;;;;5032422;28;20416;-59
2021/08/08 06:55:18;;;;;;;4.90;2.40;;;18.30;31.00;;;;;;5032276;28;20446;-59
2021/08/08 06:57:43;;;;;;;3.03;1.70;;;18.50;11.30;;;;;;5032301;28;20544;-58
2021/08/08 07:00:09;;;;;;;4.00;1.53;;;18.90;1.00;;;;;;5032022;28;20236;-59
2021/08/08 07:02:35;;;;;;;1.70;1.60;;;19.10;1.00;;;;;;5019121;28;20639;-59
2021/08/08 07:05:01;;;;;;;1.60;1.50;;;19.30;1.00;;;;;;5031910;28;20185;-59
2021/08/08 07:07:27;;;;;;;1.97;1.50;;;19.50;1.00;;;;;;5031851;28;20182;-59
2021/08/08 07:09:53;;;;;;;1.97;1.40;;;19.60;1.00;;;;;;5030576;28;20832;-59
2021/08/08 07:12:18;;;;;;;2.00;1.80;;;19.70;1.00;;;;;;5031704;28;20183;-58
2021/08/08 07:14:44;;;;;;;1.70;1.60;;;19.80;1.00;;;;;;5031858;28;20539;-53
2021/08/08 07:17:09;;;;;;;2.07;1.53;;;20.00;1.00;;;;;;5031694;28;20211;-59
2021/08/08 07:19:35;;;;;;;2.90;2.00;;;20.00;99.90;;;;;;5031843;28;20237;-58
2021/08/08 07:22:01;;;;;;;1.97;1.80;;;20.10;99.90;;;;;;5031650;28;20178;-58
2021/08/08 07:24:26;;;;;;;1.90;1.80;;;20.20;99.90;;;;;;5031300;28;20195;-60
2021/08/08 07:26:52;;;;;;;2.07;1.90;;;20.30;1.00;;;;;;5031574;28;20210;-59
2021/08/08 07:29:17;;;;;;;2.03;1.90;;;20.40;99.90;;;;;;5030170;28;20175;-59
2021/08/08 07:31:43;;;;;;;2.27;2.17;;;20.40;99.90;;;;;;5031716;28;20285;-57
2021/08/08 07:34:09;;;;;;;2.10;1.80;;;20.50;99.90;;;;;;5031329;28;20186;-60
2021/08/08 07:36:34;;;;;;;1.90;1.80;;;20.50;1.00;;;;;;5026599;28;20210;-60
2021/08/08 07:39:00;;;;;;;5.37;1.97;;;20.60;1.00;;;;;;5027990;28;20190;-60
2021/08/08 07:41:25;;;;;;;2.17;2.07;;;20.70;99.90;;;;;;5031508;28;20234;-60
2021/08/08 07:43:51;;;;;;;3.90;2.30;;;20.70;1.00;;;;;;5031284;28;20171;-60
2021/08/08 07:46:17;;;;;;;2.53;2.13;;;20.80;1.00;;;;;;5031058;28;20190;-59
2021/08/08 07:48:44;;;;;;;2.27;2.07;;;20.80;1.00;;;;;;5030928;28;20186;-60
2021/08/08 07:51:10;;;;;;;1.97;1.87;;;20.80;1.00;;;;;;5018248;28;20810;-59
2021/08/08 07:53:35;;;;;;;2.47;2.27;;;20.90;99.90;;;;;;5031062;28;20429;-60
2021/08/08 07:56:01;;;;;;;2.77;2.57;;;21.00;77.70;;;;;;5031128;28;20261;-60
2021/08/08 07:58:26;;;;;;;2.03;1.93;;;21.10;1.00;;;;;;5031601;28;20198;-59
2021/08/08 08:00:52;;;;;;;2.63;2.50;;;21.20;1.00;;;;;;5030769;28;20234;-60
2021/08/08 08:03:17;;;;;;;2.60;2.50;;;21.20;1.00;;;;;;5030985;28;20179;-60
2021/08/08 08:05:43;;;;;;;2.80;2.60;;;21.20;99.90;;;;;;5030890;28;20176;-57
2021/08/08 08:08:09;;;;;;;3.23;3.03;;;21.20;1.00;;;;;;5030972;28;20236;-60
2021/08/08 08:10:35;;;;;;;2.83;2.63;;;21.30;1.00;;;;;;5030382;28;20186;-60
2021/08/08 08:13:02;;;;;;;3.00;2.80;;;21.30;99.90;;;;;;5030540;28;21248;-58
2021/08/08 08:15:28;;;;;;;3.20;2.90;;;21.40;1.00;;;;;;5030579;28;20431;-59
2021/08/08 08:17:54;;;;;;;3.10;2.90;;;21.40;99.90;;;;;;5030252;28;20505;-59
2021/08/08 08:20:20;;;;;;;2.90;2.70;;;21.50;1.00;;;;;;5030534;28;21252;-60
2021/08/08 08:22:45;;;;;;;3.20;3.00;;;21.50;1.00;;;;;;5030519;28;20504;-57
2021/08/08 08:25:11;;;;;;;2.77;2.60;;;21.60;1.00;;;;;;5030595;28;20175;-56
2021/08/08 08:27:38;;;;;;;3.20;3.00;;;21.60;1.00;;;;;;5017043;28;20183;-59
2021/08/08 08:30:05;;;;;;;3.03;2.83;;;21.70;1.00;;;;;;5030417;28;20484;-59
2021/08/08 08:32:31;;;;;;;2.53;2.43;;;21.80;1.00;;;;;;5028956;28;20444;-59
2021/08/08 08:35:01;;;;;;;2.60;2.50;;;21.80;99.90;;;;;;5029708;28;20422;-58
2021/08/08 08:37:27;;;;;;;2.80;2.60;;;21.90;1.00;;;;;;5030416;28;20201;-59
2021/08/08 08:39:52;;;;;;;2.80;2.60;;;21.90;1.00;;;;;;5030145;28;20457;-59
2021/08/08 08:42:18;;;;;;;2.63;2.43;;;21.90;1.00;;;;;;5030327;28;20258;-58
2021/08/08 08:44:44;;;;;;;2.83;2.70;;;22.10;54.10;;;;;;5030221;28;20210;-58
2021/08/08 08:47:14;;;;;;;2.87;2.67;;;22.30;99.90;;;;;;5029886;28;20430;-59
2021/08/08 08:49:45;;;;;;;2.50;2.40;;;22.50;1.00;;;;;;5029813;28;20410;-58
2021/08/08 08:52:13;;;;;;;2.83;2.63;;;22.60;99.90;;;;;;5030102;28;20409;-58
2021/08/08 08:54:38;;;;;;;2.40;2.30;;;22.60;1.00;;;;;;5029892;28;20422;-58
2021/08/08 08:57:06;;;;;;;2.60;2.50;;;22.70;99.90;;;;;;5030003;28;20422;-59
2021/08/08 08:59:32;;;;;;;2.80;2.70;;;22.90;99.90;;;;;;5029390;28;20177;-59
2021/08/08 09:01:58;;;;;;;2.60;2.50;;;23.20;99.90;;;;;;5030099;28;20417;-59
2021/08/08 09:04:24;;;;;;;2.93;2.83;;;23.30;1.00;;;;;;5029485;28;20783;-58
2021/08/08 09:06:49;;;;;;;2.60;2.50;;;23.30;1.00;;;;;;5029770;28;20185;-58
2021/08/08 09:09:15;;;;;;;3.17;2.87;;;23.50;1.00;;;;;;5029398;28;20280;-58
2021/08/08 09:11:43;;;;;;;2.93;2.67;;;23.40;1.00;;;;;;5029782;28;20894;-54
2021/08/08 09:14:11;;;;;;;2.70;2.60;;;23.50;1.00;;;;;;5029878;28;20423;-58
2021/08/08 09:16:43;;;;;;;3.00;2.90;;;23.70;1.00;;;;;;5029508;28;20432;-57
2021/08/08 09:19:19;;;;;;;2.50;2.33;;;23.90;1.00;;;;;;5029261;28;20519;-59
2021/08/08 09:21:45;;;;;;;3.17;2.87;;;24.60;1.00;;;;;;5029767;28;20453;-59
2021/08/08 09:24:28;;;;;;;3.20;2.90;;;25.10;1.00;;;;;;5029713;28;20464;-59
2021/08/08 09:27:08;;;;;;;2.90;2.70;;;25.60;99.90;;;;;;5029564;28;20413;-59
2021/08/08 09:29:35;;;;;;;2.73;2.63;;;25.60;99.90;;;;;;5028522;28;20467;-58
2021/08/08 09:32:02;;;;;;;3.07;2.97;;;25.60;99.90;;;;;;5029226;28;20916;-59
2021/08/08 09:34:34;;;;;;;2.50;2.40;;;25.70;99.90;;;;;;5029067;28;20457;-59
2021/08/08 09:37:06;;;;;;;2.90;2.70;;;25.80;99.90;;;;;;5020568;28;20430;-59
2021/08/08 09:39:45;;;;;;;2.60;2.50;;;26.00;99.90;;;;;;5028739;28;20422;-58
2021/08/08 09:42:19;;;;;;;3.10;2.90;;;26.20;99.90;;;;;;5029337;28;20418;-56
2021/08/08 09:44:58;;;;;;;2.50;2.40;;;25.90;99.90;;;;;;5018272;28;20414;-57
2021/08/08 09:47:39;;;;;;;5.00;2.80;;;26.20;99.90;;;;;;5028614;28;20446;-58
2021/08/08 09:50:06;;;;;;;2.80;2.60;;;26.60;99.90;;;;;;5029124;28;20499;-57
2021/08/08 09:52:37;;;;;;;2.90;2.80;;;26.90;99.90;;;;;;5029261;28;20518;-58
2021/08/08 09:55:14;;;;;;;3.27;3.07;;;26.50;99.90;;;;;;5028238;28;20430;-58
2021/08/08 09:57:41;;;;;;;3.47;3.27;;;25.80;99.90;;;;;;5029244;28;20421;-58
2021/08/08 10:00:07;;;;;;;3.00;2.80;;;25.30;99.90;;;;;;5029031;28;20551;-58
2021/08/08 10:02:33;;;;;;;3.70;3.50;;;24.90;99.90;;;;;;5029158;28;20892;-58
2021/08/08 10:04:59;;;;;;;3.10;2.90;;;24.90;99.90;;;;;;5027478;28;20522;-58
2021/08/08 10:07:27;;;;;;;2.90;2.70;;;25.10;99.90;;;;;;5028971;28;20241;-59
2021/08/08 10:09:56;;;;;;;3.33;3.13;;;25.40;99.90;;;;;;5028873;28;20195;-58
2021/08/08 10:12:43;;;;;;;3.47;3.27;;;25.80;99.90;;;;;;5028996;28;20434;-58
2021/08/08 10:15:12;;;;;;;3.30;3.10;;;26.20;99.90;;;;;;5028896;28;20432;-58
2021/08/08 10:17:40;;;;;;;2.60;2.40;;;26.70;99.90;;;;;;5029153;28;20441;-58
2021/08/08 10:20:06;;;;;;;4.13;2.90;;;27.00;99.90;;;;;;5028592;28;20538;-58
2021/08/08 10:22:34;;;;;;;3.23;3.03;;;27.20;99.90;;;;;;5028877;28;20424;-58
2021/08/08 10:25:00;;;;;;;3.30;3.20;;;27.80;99.90;;;;;;5028843;28;20421;-59
2021/08/08 10:27:29;;;;;;;3.20;3.10;;;28.20;99.90;;;;;;5028638;28;20526;-59
2021/08/08 10:29:56;;;;;;;5.80;2.83;;;28.20;99.90;;;;;;5028817;28;20767;-58
2021/08/08 10:32:26;;;;;;;2.90;2.70;;;28.00;99.90;;;;;;5028742;28;20427;-58
2021/08/08 10:34:53;;;;;;;3.13;3.03;;;27.00;99.90;;;;;;5027245;28;20435;-58
2021/08/08 10:37:22;;;;;;;3.30;3.20;;;27.00;99.90;;;;;;5028868;28;20481;-58
2021/08/08 10:39:49;;;;;;;3.17;3.07;;;26.80;99.90;;;;;;5028796;28;20467;-58
2021/08/08 10:42:15;;;;;;;3.23;3.13;;;27.20;99.90;;;;;;5028801;28;20431;-58
2021/08/08 10:44:44;;;;;;;3.10;3.00;;;27.00;99.90;;;;;;5030168;28;20426;-58
2021/08/08 10:47:10;;;;;;;3.03;2.93;;;26.60;99.90;;;;;;5029005;28;20187;-59
2021/08/08 10:49:35;;;;;;;3.30;3.10;;;27.00;99.90;;;;;;5028616;28;20474;-58
2021/08/08 10:52:03;;;;;;;2.97;2.87;;;27.50;99.90;;;;;;5028498;28;20180;-58
2021/08/08 10:54:42;;;;;;;3.43;3.23;;;27.50;99.90;;;;;;5028780;28;20245;-58
2021/08/08 10:57:12;;;;;;;3.23;3.00;;;27.90;99.90;;;;;;5028736;28;20424;-59
2021/08/08 10:59:46;;;;;;;3.20;3.00;;;28.60;99.90;;;;;;5031916;28;20848;-56
2021/08/08 11:02:16;;;;;;;3.60;3.40;;;28.50;99.90;;;;;;5031833;28;20436;-59
2021/08/08 11:04:42;;;;;;;3.00;2.80;;;28.20;99.90;;;;;;5032337;28;20559;-59
2021/08/08 11:07:09;;;;;;;4.30;3.23;;;28.70;99.90;;;;;;5031985;28;20486;-58
2021/08/08 11:09:36;;;;;;;3.10;3.00;;;28.80;99.90;;;;;;5032138;28;21136;-58
2021/08/08 11:12:03;;;;;;;2.97;2.87;;;28.50;99.90;;;;;;5032122;28;20415;-58
2021/08/08 11:14:29;;;;;;;3.10;3.00;;;27.40;99.90;;;;;;5032163;28;21217;-59
2021/08/08 11:17:06;;;;;;;4.70;3.17;;;27.40;99.90;;;;;;5031964;28;20420;-59
2021/08/08 11:19:40;;;;;;;4.10;3.10;;;28.00;99.90;;;;;;5030013;28;20177;-58
2021/08/08 11:22:17;;;;;;;3.10;3.00;;;28.60;99.90;;;;;;5031813;28;20470;-59
2021/08/08 11:24:54;;;;;;;3.60;3.50;;;29.20;99.90;;;;;;5019464;28;20504;-58
2021/08/08 11:27:32;;;;;;;3.40;3.20;;;29.30;99.90;;;;;;5031223;28;20763;-58
2021/08/08 11:29:58;;;;;;;3.40;3.20;;;29.00;99.90;;;;;;5031318;28;20444;-60
2021/08/08 11:32:33;;;;;;;3.40;3.20;;;29.20;99.90;;;;;;5031979;28;21252;-59
2021/08/08 11:35:10;;;;;;;3.60;3.40;;;29.20;99.90;;;;;;5031749;28;20424;-57
2021/08/08 11:37:38;;;;;;;3.43;3.27;;;28.40;99.90;;;;;;5031426;28;20429;-58
2021/08/08 11:40:15;;;;;;;3.30;3.20;;;28.60;99.90;;;;;;5031243;28;20454;-59
2021/08/08 11:42:41;;;;;;;3.47;3.27;;;29.40;99.90;;;;;;5031443;28;20449;-59
2021/08/08 11:45:07;;;;;;;3.33;3.23;;;29.30;99.90;;;;;;5031290;28;20464;-59
2021/08/08 11:47:33;;;;;;;3.70;3.50;;;29.00;99.90;;;;;;5031164;28;20206;-60
2021/08/08 11:49:58;;;;;;;3.50;3.40;;;29.60;99.90;;;;;;5031497;28;20426;-59
2021/08/08 11:52:24;;;;;;;3.03;2.93;;;30.10;99.90;;;;;;5030986;28;20194;-58
2021/08/08 11:55:04;;;;;;;3.60;3.40;;;29.40;99.90;;;;;;5031117;28;20190;-58
2021/08/08 11:57:31;;;;;;;3.83;3.50;;;29.50;99.90;;;;;;5031591;28;20187;-56
2021/08/08 11:59:57;;;;;;;2.80;2.70;;;29.70;99.90;;;;;;5030899;28;20571;-59
2021/08/08 12:02:25;;;;;;;3.60;3.50;;;30.10;99.90;;;;;;5031310;28;20418;-59
2021/08/08 12:04:53;;;;;;;3.70;3.50;;;30.20;99.90;;;;;;5030939;28;20432;-59
2021/08/08 12:07:21;;;;;;;4.13;3.83;;;29.30;99.90;;;;;;5031252;28;20802;-59
2021/08/08 12:09:48;;;;;;;3.67;3.47;;;28.20;99.90;;;;;;5029781;28;20488;-59
2021/08/08 12:12:14;;;;;;;3.80;3.50;;;28.10;99.90;;;;;;5030904;28;20431;-58
2021/08/08 12:14:41;;;;;;;3.50;3.30;;;28.20;99.90;;;;;;5030932;28;20429;-59
2021/08/08 12:17:12;;;;;;;3.10;3.00;;;28.50;99.90;;;;;;5030749;28;20487;-58
2021/08/08 12:19:40;;;;;;;3.60;3.43;;;29.00;99.90;;;;;;5030753;28;20428;-59
2021/08/08 12:22:08;;;;;;;3.60;3.40;;;29.60;99.90;;;;;;5030542;28;20417;-59
2021/08/08 12:24:36;;;;;;;3.33;3.13;;;29.60;99.90;;;;;;5030877;28;20915;-59
2021/08/08 12:27:02;;;;;;;3.90;3.80;;;29.00;99.90;;;;;;5030510;28;20896;-59
2021/08/08 12:29:36;;;;;;;3.60;3.40;;;27.90;99.90;;;;;;5030525;28;20424;-59
2021/08/08 12:32:09;;;;;;;3.23;3.10;;;26.80;99.90;;;;;;5030334;28;20901;-58
2021/08/08 12:34:35;;;;;;;3.40;3.30;;;26.30;99.90;;;;;;5029056;28;20652;-59
2021/08/08 12:37:03;;;;;;;3.80;3.60;;;25.90;99.90;;;;;;5030763;28;20421;-59
2021/08/08 12:39:29;;;;;;;3.10;3.00;;;26.00;99.90;;;;;;5030349;28;20413;-59
2021/08/08 12:41:55;;;;;;;3.80;3.50;;;26.30;99.90;;;;;;5029959;28;20466;-58
2021/08/08 12:44:34;;;;;;;3.57;3.47;;;27.20;99.90;;;;;;5030150;28;20424;-58
2021/08/08 12:47:04;;;;;;;3.70;3.60;;;27.30;99.90;;;;;;5030077;28;20181;-58